createdAt,value
2023-03-06T00:01:02.371Z,99695.38
2023-03-06T00:04:08.204Z,99699.81
2023-03-06T00:07:10.816Z,99699.62
2023-03-06T00:10:26.017Z,99687.87
2023-03-06T00:13:30.693Z,99693.94
2023-03-06T00:16:34.045Z,99689.56
2023-03-06T00:19:36.652Z,99692.66
2023-03-06T00:22:40.636Z,99687.75
2023-03-06T00:25:44.249Z,99692.62
2023-03-06T00:28:47.342Z,99682.28
2023-03-06T00:31:52.512Z,99673.94
2023-03-06T00:34:56.526Z,99678.59
2023-03-06T00:37:59.895Z,99679.84
2023-03-06T00:41:13.257Z,99674.81
2023-03-06T00:44:15.926Z,99678.12
2023-03-06T00:47:19.601Z,99671.25
2023-03-06T00:50:22.478Z,99664.50
2023-03-06T00:53:26.185Z,99671.88
2023-03-06T00:56:30.055Z,99681.97
2023-03-06T00:59:33.413Z,99669.75
2023-03-06T01:02:36.209Z,99664.41
2023-03-06T01:05:40.658Z,99662.19
2023-03-06T01:08:43.310Z,99658.66
2023-03-06T01:11:46.877Z,99664.16
2023-03-06T01:14:49.489Z,99658.87
2023-03-06T01:17:54.586Z,99650.50
2023-03-06T01:20:57.208Z,99651.16
2023-03-06T01:24:00.364Z,99644.47
2023-03-06T01:27:04.480Z,99637.47
2023-03-06T01:30:08.478Z,99639.03
2023-03-06T01:33:11.204Z,99642.16
2023-03-06T01:36:14.393Z,99650.19
2023-03-06T01:39:17.126Z,99643.00
2023-03-06T01:42:20.374Z,99630.75
2023-03-06T01:45:23.069Z,99629.28
2023-03-06T01:48:26.563Z,99628.53
2023-03-06T01:51:33.613Z,99622.50
2023-03-06T01:54:44.544Z,99622.19
2023-03-06T01:57:52.584Z,99629.13
2023-03-06T02:00:55.915Z,99625.56
2023-03-06T02:04:00.900Z,99628.63
2023-03-06T02:07:06.614Z,99627.31
2023-03-06T02:10:10.612Z,99631.12
2023-03-06T02:13:13.553Z,99621.06
2023-03-06T02:16:17.751Z,99622.09
2023-03-06T02:19:58.207Z,99626.47
2023-03-06T02:23:25.518Z,99628.91
2023-03-06T02:26:30.025Z,99627.06
2023-03-06T02:29:32.787Z,99628.09
2023-03-06T02:32:36.542Z,99624.47
2023-03-06T02:35:40.131Z,99617.31
2023-03-06T02:38:48.897Z,99616.72
2023-03-06T02:41:51.974Z,99617.44
2023-03-06T02:44:59.346Z,99615.72
2023-03-06T02:48:02.406Z,99620.87
2023-03-06T02:51:05.852Z,99622.13
2023-03-06T02:54:08.438Z,99623.22
2023-03-06T02:57:12.351Z,99627.22
2023-03-06T03:00:15.581Z,99626.03
2023-03-06T03:03:19.202Z,99622.63
2023-03-06T03:06:21.840Z,99625.88
2023-03-06T03:09:25.526Z,99626.38
2023-03-06T03:12:28.782Z,99623.69
2023-03-06T03:15:32.002Z,99622.69
2023-03-06T03:18:34.985Z,99617.16
2023-03-06T03:21:39.924Z,99619.00
2023-03-06T03:24:42.655Z,99617.63
2023-03-06T03:27:46.978Z,99614.34
2023-03-06T03:30:49.846Z,99618.72
2023-03-06T03:33:53.554Z,99609.56
2023-03-06T03:36:56.483Z,99610.44
2023-03-06T03:39:59.894Z,99613.13
2023-03-06T03:43:02.743Z,99612.56
2023-03-06T03:46:06.217Z,99610.00
2023-03-06T03:49:09.946Z,99604.91
2023-03-06T03:52:13.561Z,99601.72
2023-03-06T03:55:16.672Z,99605.66
2023-03-06T03:58:20.213Z,99597.91
2023-03-06T04:01:23.781Z,99606.28
2023-03-06T04:04:26.898Z,99606.38
2023-03-06T04:07:29.538Z,99602.53
2023-03-06T04:10:34.360Z,99605.47
2023-03-06T04:13:37.467Z,99606.97
2023-03-06T04:16:41.339Z,99602.84
2023-03-06T04:19:44.565Z,99602.56
2023-03-06T04:22:47.962Z,99598.06
2023-03-06T04:25:51.346Z,99602.84
2023-03-06T04:28:56.251Z,99613.84
2023-03-06T04:31:59.096Z,99605.94
2023-03-06T04:35:02.718Z,99605.94
2023-03-06T04:38:06.235Z,99599.75
2023-03-06T04:41:09.528Z,99592.06
2023-03-06T04:44:12.159Z,99599.09
2023-03-06T04:47:16.952Z,99597.37
2023-03-06T04:50:22.181Z,99599.28
2023-03-06T04:53:25.930Z,99595.38
2023-03-06T04:56:28.724Z,99590.44
2023-03-06T04:59:31.842Z,99590.66
2023-03-06T05:02:34.449Z,99584.56
2023-03-06T05:05:37.622Z,99594.44
2023-03-06T05:08:40.275Z,99602.56
2023-03-06T05:11:43.475Z,99593.88
2023-03-06T05:14:47.990Z,99588.28
2023-03-06T05:17:51.417Z,99592.62
2023-03-06T05:20:59.387Z,99596.84
2023-03-06T05:24:02.536Z,99593.50
2023-03-06T05:27:05.188Z,99589.50
2023-03-06T05:30:12.292Z,99590.97
2023-03-06T05:33:15.083Z,99600.16
2023-03-06T05:36:18.231Z,99596.34
2023-03-06T05:39:21.260Z,99592.34
2023-03-06T05:42:24.289Z,99593.00
2023-03-06T05:45:26.735Z,99592.56
2023-03-06T05:48:30.320Z,99587.75
2023-03-06T05:51:32.929Z,99597.00
2023-03-06T05:54:37.249Z,99598.06
2023-03-06T05:57:40.015Z,99608.25
2023-03-06T06:00:43.221Z,99592.00
2023-03-06T06:03:47.973Z,99602.34
2023-03-06T06:06:55.769Z,99611.03
2023-03-06T06:09:58.813Z,99611.31
2023-03-06T06:13:01.813Z,99602.78
2023-03-06T06:16:11.890Z,99612.03
2023-03-06T06:19:18.778Z,99600.25
2023-03-06T06:22:21.811Z,99609.03
2023-03-06T06:25:24.950Z,99612.28
2023-03-06T06:28:29.352Z,99608.16
2023-03-06T06:31:32.842Z,99619.13
2023-03-06T06:34:35.599Z,99615.31
2023-03-06T06:37:41.434Z,99613.25
2023-03-06T06:40:46.958Z,99618.28
2023-03-06T06:44:04.272Z,99630.69
2023-03-06T06:47:22.306Z,99625.31
2023-03-06T06:50:28.376Z,99622.56
2023-03-06T06:53:32.155Z,99618.63
2023-03-06T06:56:36.201Z,99617.22
2023-03-06T06:59:45.023Z,99617.50
2023-03-06T07:02:51.267Z,99616.84
2023-03-06T07:05:55.901Z,99608.72
2023-03-06T07:08:58.795Z,99614.22
2023-03-06T07:12:01.830Z,99617.41
2023-03-06T07:15:07.092Z,99627.16
2023-03-06T07:18:17.470Z,99625.91
2023-03-06T07:21:20.354Z,99627.78
2023-03-06T07:24:29.941Z,99636.88
2023-03-06T07:27:34.767Z,99640.50
2023-03-06T07:30:40.888Z,99646.75
2023-03-06T07:33:43.744Z,99644.88
2023-03-06T07:36:46.654Z,99645.66
2023-03-06T07:39:49.753Z,99635.81
2023-03-06T07:43:09.103Z,99629.41
2023-03-06T07:46:17.356Z,99645.66
2023-03-06T07:49:20.355Z,99644.50
2023-03-06T07:52:23.732Z,99644.44
2023-03-06T07:55:26.802Z,99650.56
2023-03-06T07:58:32.195Z,99646.53
2023-03-06T08:01:36.524Z,99650.78
2023-03-06T08:04:42.207Z,99656.38
2023-03-06T08:07:50.957Z,99648.53
2023-03-06T08:10:54.205Z,99654.38
2023-03-06T08:13:58.438Z,99662.91
2023-03-06T08:17:03.227Z,99662.28
2023-03-06T08:20:06.548Z,99655.88
2023-03-06T08:23:10.885Z,99660.78
2023-03-06T08:26:22.990Z,99655.72
2023-03-06T08:29:26.864Z,99652.47
2023-03-06T08:32:29.849Z,99657.25
2023-03-06T08:35:33.246Z,99660.72
2023-03-06T08:38:35.912Z,99664.31
2023-03-06T08:41:42.176Z,99648.50
2023-03-06T08:44:44.899Z,99641.84
2023-03-06T08:47:48.021Z,99652.78
2023-03-06T08:50:51.262Z,99654.38
2023-03-06T08:53:55.511Z,99652.56
2023-03-06T08:56:58.742Z,99653.16
2023-03-06T09:00:01.873Z,99644.22
2023-03-06T09:03:07.006Z,99644.63
2023-03-06T09:06:16.334Z,99646.50
2023-03-06T09:09:19.343Z,99640.22
2023-03-06T09:12:40.384Z,99630.81
2023-03-06T09:15:53.312Z,99623.72
2023-03-06T09:18:59.075Z,99625.25
2023-03-06T09:22:03.661Z,99623.22
2023-03-06T09:25:07.285Z,99628.37
2023-03-06T09:28:11.928Z,99623.69
2023-03-06T09:31:18.655Z,99610.19
2023-03-06T09:34:26.316Z,99610.19
2023-03-06T09:37:30.093Z,99596.78
2023-03-06T09:40:57.852Z,99597.50
2023-03-06T09:44:05.250Z,99588.84
2023-03-06T09:47:07.914Z,99589.34
2023-03-06T09:50:19.463Z,99582.16
2023-03-06T09:53:48.908Z,99588.63
2023-03-06T09:56:52.106Z,99583.50
2023-03-06T09:59:57.339Z,99580.41
2023-03-06T10:03:03.499Z,99587.59
2023-03-06T10:06:28.045Z,99584.25
2023-03-06T10:09:46.815Z,99592.06
2023-03-06T10:13:06.444Z,99583.94
2023-03-06T10:16:25.301Z,99577.50
2023-03-06T10:19:41.255Z,99582.06
2023-03-06T10:23:05.390Z,99584.78
2023-03-06T10:26:15.152Z,99586.59
2023-03-06T10:30:00.104Z,99581.16
2023-03-06T10:33:21.910Z,99587.31
2023-03-06T10:36:30.012Z,99576.50
2023-03-06T10:39:32.925Z,99579.41
2023-03-06T10:42:35.750Z,99573.56
2023-03-06T10:45:54.022Z,99563.56
2023-03-06T10:48:59.749Z,99555.91
2023-03-06T10:52:02.655Z,99549.03
2023-03-06T10:55:26.257Z,99547.41
2023-03-06T10:58:31.920Z,99538.00
2023-03-06T11:01:35.838Z,99533.69
2023-03-06T11:04:40.947Z,99531.66
2023-03-06T11:07:56.611Z,99521.37
2023-03-06T11:11:11.511Z,99524.16
2023-03-06T11:14:20.859Z,99512.38
2023-03-06T11:17:29.636Z,99503.53
2023-03-06T11:20:51.149Z,99498.41
2023-03-06T11:24:00.786Z,99488.84
2023-03-06T11:27:35.819Z,99477.84
2023-03-06T11:30:50.788Z,99472.75
2023-03-06T11:34:02.607Z,99471.88
2023-03-06T11:37:36.595Z,99465.09
2023-03-06T11:40:58.561Z,99453.34
2023-03-06T11:44:25.257Z,99440.28
2023-03-06T11:47:46.400Z,99434.19
2023-03-06T11:50:52.621Z,99427.19
2023-03-06T11:53:59.885Z,99417.75
2023-03-06T11:57:12.577Z,99415.25
2023-03-06T12:00:28.088Z,99415.38
2023-03-06T12:03:52.889Z,99406.41
2023-03-06T12:07:10.801Z,99394.19
2023-03-06T12:10:29.937Z,99391.47
2023-03-06T12:14:23.356Z,99386.03
2023-03-06T12:17:50.335Z,99375.22
2023-03-06T12:21:32.527Z,99381.06
2023-03-06T12:24:53.743Z,99379.12
2023-03-06T12:28:18.172Z,99377.22
2023-03-06T12:31:30.018Z,99377.81
2023-03-06T12:35:14.574Z,99379.94
2023-03-06T12:38:29.561Z,99379.66
2023-03-06T12:41:59.323Z,99367.66
2023-03-06T12:45:30.964Z,99364.56
2023-03-06T12:48:38.705Z,99367.03
2023-03-06T12:51:44.586Z,99370.31
2023-03-06T12:54:48.360Z,99364.16
2023-03-06T12:57:51.487Z,99360.81
2023-03-06T13:01:05.895Z,99348.19
2023-03-06T13:04:40.042Z,99353.25
2023-03-06T13:07:52.835Z,99350.66
2023-03-06T13:11:14.052Z,99349.94
2023-03-06T13:14:26.529Z,99345.37
2023-03-06T13:17:35.630Z,99350.38
2023-03-06T13:20:45.025Z,99350.12
2023-03-06T13:23:52.401Z,99344.06
2023-03-06T13:27:04.868Z,99342.72
2023-03-06T13:30:23.670Z,99330.44
2023-03-06T13:33:27.251Z,99324.75
2023-03-06T13:36:32.381Z,99328.81
2023-03-06T13:39:55.110Z,99327.19
2023-03-06T13:43:04.013Z,99315.47
2023-03-06T13:46:26.423Z,99313.84
2023-03-06T13:49:30.105Z,99307.22
2023-03-06T13:52:43.749Z,99311.84
2023-03-06T13:56:06.417Z,99306.91
2023-03-06T14:00:03.022Z,99304.78
2023-03-06T14:03:41.387Z,99297.94
2023-03-06T14:06:52.643Z,99303.91
2023-03-06T14:10:08.712Z,99299.72
2023-03-06T14:13:23.441Z,99294.13
2023-03-06T14:16:40.491Z,99293.69
2023-03-06T14:19:51.915Z,99288.22
2023-03-06T14:23:32.377Z,99292.53
2023-03-06T14:26:43.910Z,99292.56
2023-03-06T14:29:48.704Z,99285.56
2023-03-06T14:32:54.744Z,99291.34
2023-03-06T14:36:03.714Z,99293.34
2023-03-06T14:39:35.350Z,99294.53
2023-03-06T14:42:38.388Z,99291.38
2023-03-06T14:45:53.202Z,99281.88
2023-03-06T14:48:59.073Z,99287.06
2023-03-06T14:52:02.357Z,99290.44
2023-03-06T14:55:11.662Z,99283.06
2023-03-06T14:58:19.976Z,99273.19
2023-03-06T15:01:29.624Z,99270.69
2023-03-06T15:04:40.799Z,99270.41
2023-03-06T15:07:45.179Z,99269.47
2023-03-06T15:10:59.570Z,99270.63
2023-03-06T15:14:04.992Z,99270.97
2023-03-06T15:17:20.006Z,99267.81
2023-03-06T15:20:42.560Z,99266.41
2023-03-06T15:23:47.977Z,99265.28
2023-03-06T15:26:55.270Z,99259.13
2023-03-06T15:30:30.410Z,99255.41
2023-03-06T15:33:33.412Z,99251.78
2023-03-06T15:37:00.844Z,99250.16
2023-03-06T15:40:09.413Z,99253.19
2023-03-06T15:43:12.393Z,99259.41
2023-03-06T15:46:15.282Z,99247.69
2023-03-06T15:49:20.599Z,99256.22
2023-03-06T15:52:23.775Z,99256.94
2023-03-06T15:55:27.113Z,99260.28
2023-03-06T15:58:33.164Z,99265.41
2023-03-06T16:01:37.427Z,99260.88
2023-03-06T16:04:40.464Z,99267.78
2023-03-06T16:07:43.833Z,99264.84
2023-03-06T16:10:47.893Z,99273.25
2023-03-06T16:13:51.553Z,99267.59
2023-03-06T16:16:55.045Z,99276.91
2023-03-06T16:19:58.110Z,99274.19
2023-03-06T16:23:01.208Z,99278.19
2023-03-06T16:26:04.472Z,99280.09
2023-03-06T16:29:08.428Z,99272.94
2023-03-06T16:32:11.724Z,99275.09
2023-03-06T16:35:15.713Z,99275.44
2023-03-06T16:38:18.623Z,99278.59
2023-03-06T16:41:21.718Z,99284.69
2023-03-06T16:44:24.610Z,99282.81
2023-03-06T16:47:27.508Z,99293.94
2023-03-06T16:50:33.576Z,99289.31
2023-03-06T16:53:36.441Z,99292.84
2023-03-06T16:56:39.319Z,99293.63
2023-03-06T16:59:42.131Z,99284.87
2023-03-06T17:02:47.896Z,99287.78
2023-03-06T17:05:51.097Z,99291.34
2023-03-06T17:08:54.285Z,99291.03
2023-03-06T17:11:57.479Z,99283.94
2023-03-06T17:15:00.406Z,99292.47
2023-03-06T17:18:05.152Z,99288.34
2023-03-06T17:21:09.055Z,99297.94
2023-03-06T17:24:11.877Z,99295.88
2023-03-06T17:27:14.739Z,99287.47
2023-03-06T17:30:17.758Z,99289.38
2023-03-06T17:33:20.624Z,99287.53
2023-03-06T17:36:23.484Z,99288.81
2023-03-06T17:39:26.337Z,99278.84
2023-03-06T17:42:29.386Z,99289.12
2023-03-06T17:45:34.221Z,99274.06
2023-03-06T17:48:37.736Z,99279.50
2023-03-06T17:51:40.708Z,99274.81
2023-03-06T17:54:43.583Z,99271.94
2023-03-06T17:57:46.398Z,99284.19
2023-03-06T18:00:49.664Z,99285.84
2023-03-06T18:03:53.114Z,99285.69
2023-03-06T18:06:57.070Z,99285.56
2023-03-06T18:10:00.246Z,99285.44
2023-03-06T18:13:02.910Z,99288.03
2023-03-06T18:16:08.083Z,99296.25
2023-03-06T18:19:11.365Z,99291.34
2023-03-06T18:22:18.604Z,99283.25
2023-03-06T18:29:04.161Z,99284.06
2023-03-06T18:32:10.846Z,99282.38
2023-03-06T18:35:13.999Z,99281.12
2023-03-06T18:38:18.821Z,99282.53
2023-03-06T18:41:22.618Z,99280.38
2023-03-06T18:44:27.829Z,99287.22
2023-03-06T18:47:33.761Z,99287.34
2023-03-06T18:50:37.618Z,99293.66
2023-03-06T18:53:41.173Z,99291.03
2023-03-06T18:56:45.598Z,99287.22
2023-03-06T18:59:48.516Z,99278.66
2023-03-06T19:02:52.122Z,99283.87
2023-03-06T19:05:56.101Z,99283.56
2023-03-06T19:09:01.803Z,99269.56
2023-03-06T19:12:07.228Z,99267.97
2023-03-06T19:15:10.543Z,99283.56
2023-03-06T19:18:16.290Z,99278.34
2023-03-06T19:21:22.061Z,99257.56
2023-03-06T19:24:26.746Z,99276.50
2023-03-06T19:27:30.184Z,99277.63
2023-03-06T19:30:33.025Z,99277.53
2023-03-06T19:33:39.292Z,99286.75
2023-03-06T19:36:42.147Z,99278.09
2023-03-06T19:39:45.084Z,99279.09
2023-03-06T19:42:48.587Z,99266.63
2023-03-06T19:45:51.533Z,99273.84
2023-03-06T19:49:03.349Z,99268.38
2023-03-06T19:52:09.211Z,99271.69
2023-03-06T19:55:14.671Z,99277.63
2023-03-06T19:58:20.303Z,99274.22
2023-03-06T20:01:28.486Z,99267.38
2023-03-06T20:04:34.302Z,99252.66
2023-03-06T20:07:41.040Z,99259.22
2023-03-06T20:10:44.178Z,99255.84
2023-03-06T20:13:49.782Z,99254.75
2023-03-06T20:16:52.962Z,99264.53
2023-03-06T20:19:56.581Z,99261.03
2023-03-06T20:23:04.766Z,99255.47
2023-03-06T20:26:16.158Z,99255.28
2023-03-06T20:29:20.577Z,99252.56
2023-03-06T20:32:23.749Z,99261.28
2023-03-06T20:35:31.857Z,99258.28
2023-03-06T20:38:37.174Z,99265.16
2023-03-06T20:41:42.277Z,99261.50
2023-03-06T20:44:48.163Z,99270.72
2023-03-06T20:47:56.207Z,99274.22
2023-03-06T20:51:04.486Z,99280.19
2023-03-06T20:54:14.957Z,99286.63
2023-03-06T20:57:20.245Z,99287.75
2023-03-06T21:00:33.312Z,99272.69
2023-03-06T21:03:37.361Z,99266.81
2023-03-06T21:06:47.036Z,99276.56
2023-03-06T21:09:54.896Z,99276.41
2023-03-06T21:13:01.336Z,99264.22
2023-03-06T21:16:17.146Z,99265.81
2023-03-06T21:19:31.231Z,99271.09
2023-03-06T21:22:35.558Z,99279.28
2023-03-06T21:25:52.428Z,99283.47
2023-03-06T21:28:57.160Z,99286.84
2023-03-06T21:32:02.104Z,99278.88
2023-03-06T21:35:05.428Z,99275.28
2023-03-06T21:38:08.494Z,99281.22
2023-03-06T21:41:24.810Z,99277.87
2023-03-06T21:44:33.529Z,99270.94
2023-03-06T21:47:39.026Z,99277.94
2023-03-06T21:50:42.732Z,99277.06
2023-03-06T21:53:46.332Z,99281.00
2023-03-06T21:56:49.594Z,99281.91
2023-03-06T21:59:52.546Z,99268.00
2023-03-06T22:02:55.521Z,99265.56
2023-03-06T22:06:10.162Z,99271.56
2023-03-06T22:09:15.000Z,99280.06
2023-03-06T22:12:18.270Z,99272.50
2023-03-06T22:15:21.920Z,99273.09
2023-03-06T22:18:25.167Z,99264.41
2023-03-06T22:21:27.814Z,99272.28
2023-03-06T22:24:31.990Z,99269.56
2023-03-06T22:27:34.406Z,99267.63
2023-03-06T22:30:37.607Z,99260.75
2023-03-06T22:33:40.812Z,99265.03
2023-03-06T22:36:44.492Z,99268.25
2023-03-06T22:39:48.065Z,99265.44
2023-03-06T22:42:51.295Z,99256.81
2023-03-06T22:45:54.409Z,99263.91
2023-03-06T22:48:58.125Z,99266.41
2023-03-06T22:52:01.988Z,99269.84
2023-03-06T22:55:06.012Z,99273.38
2023-03-06T22:58:09.973Z,99267.47
2023-03-06T23:01:29.174Z,99268.53
2023-03-06T23:04:31.939Z,99266.47
2023-03-06T23:07:39.974Z,99288.62
2023-03-06T23:10:42.574Z,99286.91
2023-03-06T23:14:05.920Z,99273.84
2023-03-06T23:17:27.474Z,99282.34
2023-03-06T23:20:49.150Z,99273.53
2023-03-06T23:24:10.395Z,99276.87
2023-03-06T23:27:15.696Z,99271.66
2023-03-06T23:30:18.764Z,99276.69
2023-03-06T23:33:22.057Z,99272.28
2023-03-06T23:36:24.960Z,99273.09
2023-03-06T23:39:28.061Z,99269.13
2023-03-06T23:42:30.848Z,99278.34
2023-03-06T23:45:34.009Z,99279.19
2023-03-06T23:48:38.589Z,99272.59
2023-03-06T23:51:41.860Z,99279.66
2023-03-06T23:54:44.417Z,99277.06
2023-03-06T23:57:47.784Z,99268.47
